Time;durP1;ratioP1;P1;durP2;ratioP2;P2;SDS_P1;SDS_P2;PMS_P1;PMS_P2;Temp;Humidity;BMP_temperature;BMP_pressure;BME280_temperature;BME280_humidity;BME280_pressure;Samples;Min_cycle;Max_cycle;Signal;HPM_P1;HPM_P2
2024/04/17 00:00:53;;;;;;;9.40;8.50;;;6.40;99.90;;;;;;6811121;26;20566;-60
2024/04/17 00:03:56;;;;;;;8.57;7.77;;;6.50;99.90;;;;;;6736463;26;20461;-59
2024/04/17 00:07:03;;;;;;;9.20;8.37;;;6.60;99.90;;;;;;6799195;26;20475;-61
2024/04/17 00:10:14;;;;;;;8.07;7.37;;;6.60;99.90;;;;;;6813225;26;20933;-61
2024/04/17 00:13:18;;;;;;;8.07;7.37;;;6.60;99.90;;;;;;6811601;26;20515;-60
2024/04/17 00:16:42;;;;;;;8.03;7.23;;;6.60;99.90;;;;;;6811974;26;20468;-60
2024/04/17 00:19:56;;;;;;;8.07;7.27;;;6.50;99.90;;;;;;6808380;26;20476;-61
2024/04/17 00:23:00;;;;;;;7.13;6.50;;;6.40;99.90;;;;;;6766812;26;20465;-60
2024/04/17 00:26:09;;;;;;;7.60;6.90;;;6.20;99.90;;;;;;6789073;26;21085;-60
2024/04/17 00:29:17;;;;;;;7.50;6.80;;;6.10;99.90;;;;;;6782203;26;20594;-60
2024/04/17 00:32:30;;;;;;;7.10;6.50;;;5.90;99.90;;;;;;6812075;26;20464;-59
2024/04/17 00:35:41;;;;;;;7.53;6.83;;;5.80;99.90;;;;;;6812074;26;20516;-59
2024/04/17 00:38:47;;;;;;;8.83;6.90;;;5.60;99.90;;;;;;6813004;26;20518;-60
2024/04/17 00:41:52;;;;;;;7.80;7.10;;;5.40;99.90;;;;;;6811949;26;20479;-60
2024/04/17 00:45:07;;;;;;;7.00;6.30;;;5.30;99.90;;;;;;6811459;26;20472;-60
2024/04/17 00:48:30;;;;;;;7.43;6.67;;;5.20;99.90;;;;;;6811234;26;20524;-60
2024/04/17 00:51:36;;;;;;;9.40;8.40;;;5.20;99.90;;;;;;6811197;26;20588;-60
2024/04/17 00:54:44;;;;;;;8.43;7.40;;;5.00;99.90;;;;;;6810981;26;20503;-59
2024/04/17 00:57:48;;;;;;;9.33;7.50;;;4.80;99.90;;;;;;6810956;26;20508;-60
2024/04/17 01:00:55;;;;;;;8.77;7.73;;;4.70;99.90;;;;;;6812894;26;20758;-60
2024/04/17 01:04:09;;;;;;;13.10;7.23;;;4.50;99.90;;;;;;6810428;26;20547;-59
2024/04/17 01:07:13;;;;;;;8.10;6.80;;;4.50;99.90;;;;;;6815732;26;20950;-60
2024/04/17 01:10:26;;;;;;;8.77;7.87;;;4.20;99.90;;;;;;6816054;26;20635;-60
2024/04/17 01:13:40;;;;;;;11.43;8.40;;;4.20;99.90;;;;;;6814985;26;20776;-60
2024/04/17 01:16:44;;;;;;;8.83;7.97;;;4.20;99.90;;;;;;6814956;26;20531;-60
2024/04/17 01:19:59;;;;;;;13.27;9.90;;;4.30;99.90;;;;;;6815291;26;20468;-60
2024/04/17 01:23:06;;;;;;;8.80;7.90;;;4.20;99.90;;;;;;6815338;26;20590;-60
2024/04/17 01:26:24;;;;;;;9.83;8.23;;;4.20;99.90;;;;;;6789166;26;20471;-60
2024/04/17 01:29:31;;;;;;;10.63;9.13;;;4.10;99.90;;;;;;6815245;26;20520;-60
2024/04/17 01:32:35;;;;;;;10.23;9.00;;;4.10;99.90;;;;;;6815277;26;20741;-60
2024/04/17 01:35:42;;;;;;;9.03;7.23;;;4.00;99.90;;;;;;6814964;26;20527;-60
2024/04/17 01:38:50;;;;;;;8.50;7.17;;;3.90;99.90;;;;;;6810705;26;20562;-59
2024/04/17 01:42:00;;;;;;;11.20;8.20;;;3.80;99.90;;;;;;6770084;26;21112;-60
2024/04/17 01:45:07;;;;;;;16.93;11.20;;;3.80;99.90;;;;;;6769278;26;20537;-59
2024/04/17 01:48:19;;;;;;;9.73;8.23;;;3.70;99.90;;;;;;6726427;26;20470;-60
2024/04/17 01:51:23;;;;;;;10.80;9.00;;;3.60;99.90;;;;;;6725539;26;20506;-60
2024/04/17 01:54:37;;;;;;;10.63;7.50;;;3.60;99.90;;;;;;6726162;26;20538;-60
2024/04/17 01:57:55;;;;;;;9.53;8.30;;;3.40;99.90;;;;;;6725264;26;20666;-60
2024/04/17 02:01:09;;;;;;;9.00;7.80;;;3.40;99.90;;;;;;6725578;26;20471;-59
2024/04/17 02:04:12;;;;;;;10.90;8.97;;;3.40;99.90;;;;;;6725866;26;20503;-60
2024/04/17 02:07:27;;;;;;;9.13;7.87;;;3.40;99.90;;;;;;6725381;26;20462;-60
2024/04/17 02:10:31;;;;;;;9.17;7.10;;;3.30;99.90;;;;;;6723528;26;20888;-60
2024/04/17 02:13:54;;;;;;;9.10;8.20;;;3.30;99.90;;;;;;6722401;26;20517;-60
2024/04/17 02:16:58;;;;;;;9.27;7.77;;;3.30;99.90;;;;;;6692092;26;20522;-60
2024/04/17 02:20:08;;;;;;;8.47;7.33;;;3.20;99.90;;;;;;6749952;26;20566;-60
2024/04/17 02:23:12;;;;;;;7.37;6.60;;;3.20;99.90;;;;;;6768823;26;20461;-60
2024/04/17 02:26:20;;;;;;;8.93;7.17;;;3.20;99.90;;;;;;6763462;26;20590;-61
2024/04/17 02:29:30;;;;;;;8.00;7.10;;;3.20;99.90;;;;;;6767472;26;20517;-60
2024/04/17 02:32:47;;;;;;;9.77;7.63;;;3.20;99.90;;;;;;6768401;26;20461;-60
2024/04/17 02:35:53;;;;;;;7.57;6.60;;;3.10;99.90;;;;;;6768740;26;20526;-60
2024/04/17 02:38:58;;;;;;;8.90;7.30;;;3.10;99.90;;;;;;6773020;26;20532;-61
2024/04/17 02:42:09;;;;;;;8.27;6.43;;;3.10;99.90;;;;;;6813708;26;20849;-60
2024/04/17 02:45:27;;;;;;;7.93;7.10;;;3.10;99.90;;;;;;6813288;26;20464;-61
2024/04/17 02:48:37;;;;;;;8.47;7.57;;;3.10;99.90;;;;;;6813798;26;20456;-60
2024/04/17 02:51:40;;;;;;;8.00;7.20;;;3.10;99.90;;;;;;6813774;26;20452;-60
2024/04/17 02:54:49;;;;;;;11.30;8.80;;;3.20;99.90;;;;;;6813032;26;20587;-60
2024/04/17 02:57:56;;;;;;;11.53;9.00;;;3.20;99.90;;;;;;6812754;26;20831;-60
2024/04/17 03:01:09;;;;;;;16.10;11.50;;;3.30;99.90;;;;;;6813172;26;20904;-61
2024/04/17 03:04:21;;;;;;;10.27;8.83;;;3.30;99.90;;;;;;6812661;26;20472;-60
2024/04/17 03:07:26;;;;;;;15.70;11.00;;;3.30;99.90;;;;;;6781671;26;20516;-60
2024/04/17 03:10:49;;;;;;;79.40;16.43;;;3.40;99.90;;;;;;6812652;26;20529;-60
2024/04/17 03:14:04;;;;;;;103.00;20.97;;;3.40;99.90;;;;;;6811598;26;20467;-60
2024/04/17 03:17:22;;;;;;;77.03;15.83;;;3.40;99.90;;;;;;6803182;26;20994;-61
2024/04/17 03:20:34;;;;;;;63.47;15.87;;;3.30;99.90;;;;;;6813200;26;20516;-60
2024/04/17 03:23:38;;;;;;;41.47;14.27;;;3.40;99.90;;;;;;6811211;26;20487;-60
2024/04/17 03:26:48;;;;;;;34.90;14.60;;;3.50;99.90;;;;;;6811992;26;20476;-60
2024/04/17 03:29:51;;;;;;;49.90;13.87;;;3.70;99.90;;;;;;6812264;26;20857;-60
2024/04/17 03:33:04;;;;;;;113.53;17.97;;;3.80;99.90;;;;;;6812148;26;20464;-60
2024/04/17 03:36:11;;;;;;;51.27;12.67;;;3.80;99.90;;;;;;6812355;26;20544;-60
2024/04/17 03:39:21;;;;;;;29.13;13.30;;;3.80;99.90;;;;;;6811291;26;20530;-60
2024/04/17 03:42:37;;;;;;;26.33;12.93;;;3.90;99.90;;;;;;6812691;26;20456;-60
2024/04/17 03:45:44;;;;;;;39.73;13.67;;;4.00;99.90;;;;;;6813348;26;20468;-60
2024/04/17 03:49:07;;;;;;;28.00;11.20;;;4.10;99.90;;;;;;6812336;26;20479;-60
2024/04/17 03:52:14;;;;;;;34.30;11.10;;;4.10;99.90;;;;;;6812369;26;21203;-61
2024/04/17 03:55:19;;;;;;;21.27;10.90;;;4.10;99.90;;;;;;6812219;26;20520;-60
2024/04/17 03:58:27;;;;;;;36.30;11.87;;;4.10;99.90;;;;;;6811448;26;20460;-60
2024/04/17 04:01:36;;;;;;;27.33;10.00;;;4.10;99.90;;;;;;6811596;26;20917;-60
2024/04/17 04:04:57;;;;;;;16.90;8.77;;;3.70;99.90;;;;;;6811352;26;20480;-60
2024/04/17 04:08:13;;;;;;;21.30;8.93;;;3.80;99.90;;;;;;6780771;26;20463;-59
2024/04/17 04:11:18;;;;;;;14.00;8.93;;;3.90;99.90;;;;;;6812305;26;21140;-60
2024/04/17 04:14:32;;;;;;;12.57;10.13;;;4.10;99.90;;;;;;6810276;26;20468;-61
2024/04/17 04:17:42;;;;;;;15.00;9.30;;;4.20;99.90;;;;;;6811355;26;20944;-60
2024/04/17 04:21:01;;;;;;;10.67;8.60;;;4.40;99.90;;;;;;6812445;26;20464;-60
2024/04/17 04:24:07;;;;;;;13.73;8.83;;;4.60;99.90;;;;;;6803667;26;20478;-60
2024/04/17 04:27:15;;;;;;;12.93;9.80;;;4.70;99.90;;;;;;6811862;26;20472;-60
2024/04/17 04:30:25;;;;;;;15.50;9.63;;;4.90;99.90;;;;;;6804963;26;20467;-60
2024/04/17 04:33:29;;;;;;;13.07;9.50;;;5.00;99.90;;;;;;6811310;26;20524;-60
2024/04/17 04:36:43;;;;;;;12.80;11.00;;;5.00;99.90;;;;;;6810891;26;20468;-61
2024/04/17 04:39:53;;;;;;;13.90;9.70;;;5.20;99.90;;;;;;6810283;26;20469;-61
2024/04/17 04:42:59;;;;;;;12.20;9.63;;;5.40;99.90;;;;;;6811729;26;20520;-60
2024/04/17 04:46:09;;;;;;;14.30;10.00;;;5.50;99.90;;;;;;6805525;26;20559;-61
2024/04/17 04:49:14;;;;;;;12.70;9.13;;;5.50;99.90;;;;;;6810906;26;20460;-60
2024/04/17 04:52:40;;;;;;;15.27;9.37;;;5.60;99.90;;;;;;6811152;26;20456;-60
2024/04/17 04:55:54;;;;;;;10.50;8.13;;;6.00;99.90;;;;;;6810143;26;20639;-61
2024/04/17 04:59:00;;;;;;;8.03;6.70;;;6.10;99.90;;;;;;6810593;26;20532;-60
2024/04/17 05:02:22;;;;;;;9.43;7.77;;;6.00;99.90;;;;;;6809943;26;20502;-61
2024/04/17 05:05:35;;;;;;;8.07;7.00;;;5.80;99.90;;;;;;6809693;26;20528;-61
2024/04/17 05:08:58;;;;;;;7.43;6.50;;;5.90;99.90;;;;;;6810865;26;20555;-60
2024/04/17 05:12:02;;;;;;;9.17;7.20;;;6.10;99.90;;;;;;6808452;26;20479;-62
2024/04/17 05:15:09;;;;;;;9.50;7.90;;;6.20;99.90;;;;;;6810091;26;20528;-60
2024/04/17 05:18:15;;;;;;;9.57;7.43;;;6.40;99.90;;;;;;6810965;26;20480;-60
2024/04/17 05:21:39;;;;;;;9.80;8.43;;;6.50;99.90;;;;;;6809918;26;21060;-61
2024/04/17 05:25:00;;;;;;;8.67;7.77;;;6.70;99.90;;;;;;6809795;26;20468;-61
2024/04/17 05:28:05;;;;;;;8.80;7.90;;;7.00;99.90;;;;;;6801285;26;20476;-61
2024/04/17 05:31:17;;;;;;;8.47;7.57;;;7.30;99.90;;;;;;6807193;26;20812;-61
2024/04/17 05:34:20;;;;;;;11.80;7.67;;;7.60;99.90;;;;;;6800219;26;20541;-61
2024/04/17 05:37:35;;;;;;;8.00;6.90;;;7.90;99.90;;;;;;6806687;26;20468;-60
2024/04/17 05:40:54;;;;;;;9.20;8.10;;;8.20;99.90;;;;;;6780987;26;20578;-61
2024/04/17 05:44:03;;;;;;;8.87;7.97;;;8.50;99.90;;;;;;6786213;26;20566;-61
2024/04/17 05:47:19;;;;;;;7.90;6.70;;;9.70;99.90;;;;;;6811063;26;20566;-61
2024/04/17 05:50:28;;;;;;;7.20;6.50;;;11.30;99.90;;;;;;6812318;26;20958;-61
2024/04/17 05:53:33;;;;;;;7.53;6.37;;;12.20;98.40;;;;;;6811845;26;20471;-61
2024/04/17 05:56:55;;;;;;;6.70;6.00;;;13.10;97.60;;;;;;6812683;26;20479;-62
2024/04/17 06:00:01;;;;;;;6.87;5.87;;;14.60;94.40;;;;;;6809219;26;20480;-61
2024/04/17 06:03:08;;;;;;;4.37;3.97;;;17.80;87.00;;;;;;6814022;26;20476;-61
2024/04/17 06:06:12;;;;;;;4.13;3.73;;;20.50;67.10;;;;;;6812379;26;20515;-61
2024/04/17 06:09:33;;;;;;;3.97;3.67;;;22.90;55.70;;;;;;6813982;26;20231;-61
2024/04/17 06:12:39;;;;;;;4.60;3.40;;;24.90;47.80;;;;;;6813784;26;20223;-62
2024/04/17 06:15:48;;;;;;;5.20;3.97;;;26.70;42.10;;;;;;6814388;26;20739;-61
2024/04/17 06:18:56;;;;;;;6.60;3.60;;;28.00;38.50;;;;;;6814765;26;20688;-61
2024/04/17 06:22:06;;;;;;;3.60;3.10;;;28.30;34.10;;;;;;6813326;26;20234;-62
2024/04/17 06:25:15;;;;;;;3.23;3.00;;;29.20;31.30;;;;;;6813532;26;20250;-61
2024/04/17 06:28:37;;;;;;;5.10;2.97;;;30.10;30.10;;;;;;6810203;26;20222;-62
2024/04/17 06:31:44;;;;;;;4.07;3.67;;;31.10;28.50;;;;;;6809224;26;20327;-62
2024/04/17 06:34:49;;;;;;;3.60;3.30;;;32.10;27.40;;;;;;6814401;26;20254;-61
2024/04/17 06:38:06;;;;;;;3.55;3.10;;;33.10;25.50;;;;;;6778629;26;20325;-62
2024/04/17 06:41:14;;;;;;;3.95;3.65;;;33.80;24.70;;;;;;6769334;26;20247;-62
2024/04/17 06:44:25;;;;;;;3.30;3.08;;;34.40;23.30;;;;;;6788132;26;20230;-62
2024/04/17 06:47:32;;;;;;;2.90;2.70;;;35.20;22.60;;;;;;6813575;26;20219;-63
2024/04/17 06:50:35;;;;;;;4.03;2.72;;;35.60;22.10;;;;;;6814116;26;20226;-62
2024/04/17 06:53:44;;;;;;;4.65;2.70;;;36.50;21.60;;;;;;6813233;26;20261;-61
2024/04/17 06:56:52;;;;;;;3.22;2.88;;;37.30;20.80;;;;;;6806242;26;20293;-62
2024/04/17 07:00:10;;;;;;;3.92;3.28;;;37.90;20.20;;;;;;6809082;26;20285;-62
2024/04/17 07:03:24;;;;;;;7.35;3.97;;;38.70;19.10;;;;;;6785550;26;20338;-63
2024/04/17 07:06:27;;;;;;;2.95;2.70;;;39.00;18.60;;;;;;6812720;26;20289;-62
2024/04/17 07:09:31;;;;;;;3.30;3.00;;;39.50;18.00;;;;;;6813716;26;20265;-62
2024/04/17 07:12:34;;;;;;;3.60;2.60;;;40.00;17.80;;;;;;6812147;26;20230;-62
2024/04/17 07:15:41;;;;;;;3.22;2.08;;;40.50;17.40;;;;;;6813460;26;20339;-62
2024/04/17 07:18:45;;;;;;;3.92;2.28;;;41.10;16.70;;;;;;6812761;26;20226;-62
2024/04/17 07:21:50;;;;;;;11.98;4.05;;;41.40;16.00;;;;;;6815745;26;20298;-61
2024/04/17 07:24:53;;;;;;;2.75;2.35;;;41.90;15.50;;;;;;6812350;26;20239;-61
2024/04/17 07:27:58;;;;;;;2.78;2.25;;;40.80;16.10;;;;;;6804153;26;20238;-61
2024/04/17 07:31:06;;;;;;;2.42;2.22;;;38.00;17.40;;;;;;6806407;26;20727;-61
2024/04/17 07:34:09;;;;;;;2.70;2.50;;;36.20;18.70;;;;;;6767020;26;20270;-62
2024/04/17 07:37:15;;;;;;;3.85;3.20;;;34.80;19.90;;;;;;6789312;26;20239;-62
2024/04/17 07:40:17;;;;;;;2.88;2.58;;;33.80;21.20;;;;;;6813151;26;20242;-63
2024/04/17 07:43:32;;;;;;;4.60;2.80;;;34.60;20.90;;;;;;6792525;26;20355;-62
2024/04/17 07:46:43;;;;;;;3.05;2.75;;;34.20;21.10;;;;;;6814255;26;20288;-63
2024/04/17 07:49:49;;;;;;;2.80;2.50;;;34.70;20.60;;;;;;6815046;26;20238;-63
2024/04/17 07:52:55;;;;;;;4.05;2.25;;;36.20;19.40;;;;;;6815003;26;20226;-63
2024/04/17 07:56:10;;;;;;;2.20;1.90;;;35.90;19.10;;;;;;6812739;26;20282;-63
2024/04/17 07:59:15;;;;;;;2.15;1.95;;;31.20;21.80;;;;;;6797761;26;20287;-63
2024/04/17 08:02:29;;;;;;;5.43;2.17;;;28.80;24.60;;;;;;6772052;26;20695;-62
2024/04/17 08:05:34;;;;;;;6.85;3.70;;;29.00;25.30;;;;;;6812247;26;20310;-64
2024/04/17 08:08:42;;;;;;;6.53;4.88;;;31.10;23.90;;;;;;6812630;26;20226;-66
2024/04/17 08:11:46;;;;;;;4.88;4.45;;;29.30;26.40;;;;;;6789036;26;20344;-66
2024/04/17 08:15:10;;;;;;;3.72;3.25;;;30.90;25.20;;;;;;6808677;26;20239;-65
2024/04/17 08:18:34;;;;;;;3.20;3.00;;;33.30;23.70;;;;;;6780152;26;20241;-64
2024/04/17 08:21:38;;;;;;;4.18;3.05;;;32.90;22.80;;;;;;6812388;26;20273;-65
2024/04/17 08:24:45;;;;;;;3.17;2.70;;;32.40;22.40;;;;;;6812372;26;20335;-65
2024/04/17 08:27:52;;;;;;;3.08;2.38;;;30.80;24.30;;;;;;6809729;26;20437;-65
2024/04/17 08:31:09;;;;;;;2.45;2.25;;;29.80;24.90;;;;;;6806615;26;20730;-66
2024/04/17 08:34:22;;;;;;;3.03;2.53;;;29.40;24.70;;;;;;6801498;26;20304;-66
2024/04/17 08:37:29;;;;;;;2.10;1.90;;;29.50;24.90;;;;;;6799730;26;20231;-65
2024/04/17 08:40:42;;;;;;;2.38;2.08;;;29.40;25.60;;;;;;6811013;26;20337;-67
2024/04/17 08:43:46;;;;;;;3.58;2.00;;;31.00;24.00;;;;;;6803751;26;20254;-65
2024/04/17 08:47:03;;;;;;;5.67;2.20;;;30.50;24.20;;;;;;6821407;26;20313;-66
2024/04/17 08:50:16;;;;;;;3.10;1.50;;;29.20;23.90;;;;;;6782383;26;20560;-67
2024/04/17 08:53:24;;;;;;;1.93;1.23;;;27.80;25.00;;;;;;6811086;26;20685;-65
2024/04/17 08:56:36;;;;;;;1.70;1.40;;;26.60;26.10;;;;;;6809721;26;20239;-67
2024/04/17 08:59:44;;;;;;;2.33;1.30;;;25.40;26.50;;;;;;6811297;26;20235;-67
2024/04/17 09:02:55;;;;;;;1.40;1.00;;;24.30;25.90;;;;;;6811036;26;20554;-66
2024/04/17 09:06:18;;;;;;;1.83;1.00;;;23.50;24.70;;;;;;6811939;26;20555;-66
2024/04/17 09:09:24;;;;;;;2.23;0.70;;;22.60;24.90;;;;;;6811461;26;20325;-66
2024/04/17 09:12:32;;;;;;;1.47;0.80;;;22.20;25.40;;;;;;6834063;26;20233;-66
2024/04/17 09:15:47;;;;;;;2.70;1.20;;;21.70;25.80;;;;;;6850845;26;20273;-66
2024/04/17 09:18:54;;;;;;;9.47;1.43;;;21.20;27.20;;;;;;6805004;26;20231;-65
2024/04/17 09:22:11;;;;;;;1.50;0.70;;;20.80;27.70;;;;;;6813047;26;20282;-66
2024/04/17 09:25:16;;;;;;;3.00;0.80;;;20.40;28.40;;;;;;6807994;26;20468;-64
2024/04/17 09:28:35;;;;;;;1.73;0.70;;;19.90;29.20;;;;;;6809988;26;20284;-64
2024/04/17 09:31:46;;;;;;;0.67;0.60;;;19.60;30.50;;;;;;6811709;26;20273;-64
2024/04/17 09:34:49;;;;;;;2.13;0.50;;;19.20;31.40;;;;;;6814466;26;20426;-65
2024/04/17 09:38:18;;;;;;;0.80;0.70;;;18.90;31.60;;;;;;6828779;26;20273;-65
2024/04/17 09:41:23;;;;;;;1.00;0.60;;;19.00;31.80;;;;;;6820808;26;20288;-65
2024/04/17 09:44:31;;;;;;;0.80;0.80;;;20.00;31.70;;;;;;6828714;26;20430;-65
2024/04/17 09:47:36;;;;;;;0.90;0.60;;;23.30;29.10;;;;;;6821911;26;20281;-66
2024/04/17 09:50:46;;;;;;;2.90;0.80;;;23.90;26.40;;;;;;6815395;26;20279;-66
2024/04/17 09:54:15;;;;;;;1.00;0.80;;;23.80;25.80;;;;;;6833402;26;20282;-65
2024/04/17 09:57:23;;;;;;;1.90;1.33;;;23.20;25.60;;;;;;6818938;26;20283;-65
2024/04/17 10:00:34;;;;;;;2.93;2.73;;;22.80;25.90;;;;;;6818133;26;20238;-66
2024/04/17 10:03:42;;;;;;;2.00;1.13;;;22.30;26.40;;;;;;6805100;26;20251;-65
2024/04/17 10:06:48;;;;;;;0.70;0.70;;;21.80;26.10;;;;;;6805194;26;20767;-65
2024/04/17 10:10:29;;;;;;;1.07;0.83;;;21.10;26.70;;;;;;6814161;26;20513;-65
2024/04/17 10:13:36;;;;;;;4.23;1.10;;;21.30;26.30;;;;;;6813443;26;20235;-65
2024/04/17 10:16:43;;;;;;;1.00;0.80;;;25.60;25.60;;;;;;6813430;26;20664;-65
2024/04/17 10:19:53;;;;;;;1.70;0.73;;;28.20;21.20;;;;;;6806094;26;20239;-67
2024/04/17 10:23:11;;;;;;;2.40;0.90;;;29.30;20.40;;;;;;6811727;26;20276;-66
2024/04/17 10:26:47;;;;;;;1.10;0.87;;;29.30;19.80;;;;;;6814456;26;20234;-66
2024/04/17 10:29:55;;;;;;;1.42;0.75;;;30.20;18.70;;;;;;6814484;26;20660;-66
2024/04/17 10:32:59;;;;;;;3.22;0.77;;;31.70;17.90;;;;;;6809389;26;20356;-66
2024/04/17 10:36:20;;;;;;;1.90;1.10;;;31.00;18.10;;;;;;6813906;26;20657;-65
2024/04/17 10:39:34;;;;;;;0.85;0.70;;;30.50;18.50;;;;;;6793157;26;20698;-66
2024/04/17 10:42:57;;;;;;;1.38;0.60;;;33.10;17.00;;;;;;6802164;26;20285;-66
2024/04/17 10:46:04;;;;;;;0.90;0.68;;;36.70;15.00;;;;;;6836513;26;20245;-65
2024/04/17 10:49:18;;;;;;;1.70;0.88;;;39.30;13.10;;;;;;6794222;26;20235;-65
2024/04/17 10:52:24;;;;;;;0.73;0.57;;;40.40;11.10;;;;;;6806798;26;20242;-66
2024/04/17 10:55:28;;;;;;;1.83;0.63;;;39.60;11.20;;;;;;6812141;26;20238;-66
2024/04/17 10:58:51;;;;;;;2.88;1.38;;;37.10;12.00;;;;;;6810901;26;20266;-66
2024/04/17 11:01:56;;;;;;;2.55;2.08;;;34.80;13.40;;;;;;6810393;26;20281;-66
2024/04/17 11:05:11;;;;;;;5.15;2.38;;;32.80;14.80;;;;;;6814054;26;20897;-65
2024/04/17 11:08:16;;;;;;;1.58;1.27;;;30.30;16.20;;;;;;6815334;26;20238;-65
2024/04/17 11:11:33;;;;;;;1.70;1.13;;;28.70;17.50;;;;;;6813038;26;20592;-65
2024/04/17 11:15:04;;;;;;;1.37;0.87;;;26.80;18.70;;;;;;6808083;26;20239;-66
2024/04/17 11:18:09;;;;;;;4.40;1.20;;;25.30;20.30;;;;;;6811624;26;20238;-65
2024/04/17 11:21:30;;;;;;;1.10;0.87;;;25.30;21.20;;;;;;6808531;26;20281;-66
2024/04/17 11:24:36;;;;;;;3.60;1.20;;;27.50;20.50;;;;;;6811051;26;20289;-65
2024/04/17 11:27:44;;;;;;;1.95;1.13;;;31.60;18.30;;;;;;6808294;26;20514;-65
2024/04/17 11:30:51;;;;;;;1.70;0.98;;;33.80;16.40;;;;;;6812836;26;20359;-66
2024/04/17 11:33:57;;;;;;;0.95;0.73;;;34.90;15.00;;;;;;6813641;26;20223;-65
2024/04/17 11:37:04;;;;;;;0.90;0.68;;;36.00;13.80;;;;;;6808062;20;20292;-65
2024/04/17 11:40:15;;;;;;;1.23;1.00;;;35.40;13.70;;;;;;6800183;26;20226;-66
2024/04/17 11:43:18;;;;;;;1.00;0.68;;;34.80;13.80;;;;;;6801833;26;20281;-65
2024/04/17 11:46:40;;;;;;;3.28;1.20;;;34.20;15.00;;;;;;6831485;25;20326;-65
2024/04/17 11:49:46;;;;;;;4.78;1.00;;;34.30;15.10;;;;;;6799898;26;20362;-65
2024/04/17 11:52:53;;;;;;;2.35;0.80;;;34.00;15.10;;;;;;6799393;26;20314;-65
2024/04/17 11:55:58;;;;;;;2.10;1.27;;;33.70;15.30;;;;;;6805588;26;20242;-65
2024/04/17 11:59:05;;;;;;;3.08;1.70;;;33.50;15.40;;;;;;6810623;26;20703;-65
2024/04/17 12:02:23;;;;;;;2.80;0.95;;;33.60;15.00;;;;;;6799290;26;20633;-67
2024/04/17 12:05:38;;;;;;;3.67;1.42;;;32.70;15.90;;;;;;6809050;26;20304;-65
2024/04/17 12:08:42;;;;;;;3.17;1.42;;;31.40;16.10;;;;;;6754443;26;20629;-67
2024/04/17 12:11:55;;;;;;;1.92;1.75;;;30.40;16.50;;;;;;6753124;26;20549;-66
2024/04/17 12:15:06;;;;;;;1.80;1.30;;;30.00;16.60;;;;;;6773957;26;20991;-66
2024/04/17 12:18:23;;;;;;;4.43;1.80;;;29.60;16.60;;;;;;6798327;25;20247;-66
2024/04/17 12:21:32;;;;;;;1.58;1.48;;;29.40;16.50;;;;;;6796094;26;20234;-65
2024/04/17 12:28:12;;;;;;;2.80;0.75;;;28.80;16.70;;;;;;6799978;26;20235;-66
2024/04/17 12:31:20;;;;;;;2.33;1.00;;;28.10;18.50;;;;;;6818213;25;20279;-66
2024/04/17 12:34:33;;;;;;;1.43;1.00;;;27.70;18.60;;;;;;6809227;25;20293;-66
2024/04/17 12:37:43;;;;;;;0.90;0.73;;;27.60;18.80;;;;;;6812976;26;20322;-66
2024/04/17 12:40:51;;;;;;;1.63;0.90;;;27.40;18.20;;;;;;6814714;25;20234;-64
2024/04/17 12:44:03;;;;;;;5.00;1.13;;;27.00;19.10;;;;;;6760598;26;20277;-64
2024/04/17 12:47:11;;;;;;;2.07;1.10;;;26.20;19.80;;;;;;6792190;26;20933;-66
2024/04/17 12:50:32;;;;;;;1.10;0.90;;;25.20;20.60;;;;;;6798825;26;20307;-65
2024/04/17 12:53:48;;;;;;;2.07;1.00;;;24.20;21.60;;;;;;6803284;26;20229;-65
2024/04/17 12:56:55;;;;;;;1.27;1.00;;;23.70;21.90;;;;;;6811858;26;20530;-66
2024/04/17 13:00:04;;;;;;;1.73;1.10;;;23.40;23.00;;;;;;6804214;26;20564;-67
2024/04/17 13:03:08;;;;;;;3.27;1.10;;;23.10;23.30;;;;;;6795348;26;20727;-66
2024/04/17 13:06:17;;;;;;;3.00;1.30;;;22.70;23.60;;;;;;6817553;26;20250;-66
2024/04/17 13:09:20;;;;;;;1.83;1.20;;;22.30;24.00;;;;;;6816260;26;20855;-63
2024/04/17 13:12:28;;;;;;;1.50;1.00;;;22.00;24.00;;;;;;6816735;26;20273;-65
2024/04/17 13:15:31;;;;;;;0.83;0.80;;;21.90;23.90;;;;;;6816984;26;20239;-66
2024/04/17 13:18:39;;;;;;;6.97;1.63;;;21.50;24.60;;;;;;6812377;26;20878;-66
2024/04/17 13:21:58;;;;;;;1.50;0.97;;;21.40;25.00;;;;;;6828694;26;20246;-64
2024/04/17 13:25:12;;;;;;;1.17;0.87;;;21.30;24.50;;;;;;6837364;26;20335;-65
2024/04/17 13:28:16;;;;;;;2.63;1.20;;;21.40;24.40;;;;;;6773127;26;20340;-65
2024/04/17 13:31:29;;;;;;;4.87;1.30;;;21.10;23.50;;;;;;6771756;26;20267;-65
2024/04/17 13:34:33;;;;;;;1.17;0.87;;;20.90;24.00;;;;;;6797397;26;20239;-64
2024/04/17 13:37:49;;;;;;;1.37;0.70;;;20.60;24.20;;;;;;6797398;26;20351;-58
2024/04/17 13:40:59;;;;;;;0.80;0.60;;;19.90;24.70;;;;;;6801555;26;20536;-63
2024/04/17 13:44:14;;;;;;;1.10;0.80;;;19.70;25.60;;;;;;6800291;26;20312;-62
2024/04/17 13:47:27;;;;;;;1.53;0.70;;;19.60;25.80;;;;;;6781539;25;20323;-62
2024/04/17 13:50:31;;;;;;;1.60;0.73;;;19.70;25.50;;;;;;6769167;25;20264;-61
2024/04/17 13:53:52;;;;;;;0.80;0.70;;;19.80;25.20;;;;;;6811124;26;20272;-63
2024/04/17 13:56:56;;;;;;;1.10;0.80;;;20.00;25.30;;;;;;6798863;26;20248;-62
2024/04/17 14:00:11;;;;;;;1.70;0.90;;;20.10;25.50;;;;;;6793885;26;20266;-63
2024/04/17 14:03:27;;;;;;;2.40;0.90;;;20.30;25.00;;;;;;6753289;26;20224;-62
2024/04/17 14:06:31;;;;;;;1.43;0.50;;;20.20;25.20;;;;;;6764983;26;20502;-64
2024/04/17 14:09:50;;;;;;;1.60;1.20;;;20.10;25.80;;;;;;6801629;25;20563;-62
2024/04/17 14:12:55;;;;;;;1.00;0.90;;;19.80;25.80;;;;;;6801119;26;20525;-63
2024/04/17 14:16:09;;;;;;;1.37;0.83;;;19.50;26.70;;;;;;6802373;25;20534;-63
2024/04/17 14:19:25;;;;;;;3.20;1.50;;;19.20;28.00;;;;;;6802576;26;20305;-64
2024/04/17 14:22:38;;;;;;;2.60;1.30;;;19.10;28.80;;;;;;6802869;26;20704;-63
2024/04/17 14:26:00;;;;;;;2.20;1.20;;;19.00;29.30;;;;;;6804292;26;20247;-63
2024/04/17 14:29:05;;;;;;;3.60;1.43;;;19.00;29.20;;;;;;6804673;26;20231;-62
2024/04/17 14:32:18;;;;;;;1.87;1.00;;;18.90;29.70;;;;;;6805083;26;20340;-62
2024/04/17 14:35:22;;;;;;;1.00;0.90;;;18.80;29.50;;;;;;6799911;26;20386;-62
2024/04/17 14:42:12;;;;;;;0.97;0.70;;;18.90;29.30;;;;;;6754411;26;20233;-62
2024/04/17 14:45:16;;;;;;;1.97;0.60;;;19.00;28.70;;;;;;6765839;26;20290;-61
2024/04/17 14:48:23;;;;;;;0.80;0.70;;;19.10;28.60;;;;;;6801036;25;20680;-61
2024/04/17 14:51:37;;;;;;;0.60;0.50;;;19.30;28.50;;;;;;6799379;26;20275;-62
2024/04/17 14:54:50;;;;;;;0.70;0.60;;;19.30;27.90;;;;;;6801269;26;20243;-61
2024/04/17 14:58:02;;;;;;;1.37;0.60;;;19.10;27.90;;;;;;6801854;26;20231;-62
2024/04/17 15:01:17;;;;;;;1.77;1.03;;;19.20;28.60;;;;;;6801999;26;20224;-62
2024/04/17 15:04:27;;;;;;;0.87;0.70;;;19.30;28.30;;;;;;6801845;26;20251;-62
2024/04/17 15:07:33;;;;;;;0.70;0.70;;;19.30;28.50;;;;;;6801542;26;20681;-62
2024/04/17 15:10:52;;;;;;;1.67;1.00;;;19.10;28.50;;;;;;6801261;26;20235;-62
2024/04/17 15:14:12;;;;;;;1.47;0.60;;;18.90;29.00;;;;;;6769022;26;20231;-62
2024/04/17 15:17:15;;;;;;;1.43;0.80;;;18.80;29.00;;;;;;6800906;26;20262;-62
2024/04/17 15:20:29;;;;;;;0.50;0.43;;;18.60;30.00;;;;;;6800532;26;20242;-62
2024/04/17 15:23:33;;;;;;;1.00;0.60;;;18.30;28.80;;;;;;6800595;25;20264;-62
2024/04/17 15:26:59;;;;;;;0.60;0.40;;;18.30;28.90;;;;;;6800217;26;20239;-62
2024/04/17 15:30:16;;;;;;;0.50;0.30;;;18.20;28.50;;;;;;6801114;25;20242;-62
2024/04/17 15:33:30;;;;;;;0.60;0.40;;;18.30;28.30;;;;;;6801774;26;20243;-62
2024/04/17 15:36:36;;;;;;;0.80;0.50;;;18.40;27.80;;;;;;6801380;26;20529;-61
2024/04/17 15:39:40;;;;;;;0.80;0.50;;;18.40;28.30;;;;;;6792693;26;20277;-63
2024/04/17 15:42:54;;;;;;;1.17;0.50;;;18.30;28.20;;;;;;6801338;26;20231;-62
2024/04/17 15:46:16;;;;;;;1.33;0.40;;;18.10;28.30;;;;;;6776639;26;20247;-61
2024/04/17 15:49:27;;;;;;;1.00;0.67;;;17.60;29.40;;;;;;6793694;25;20657;-60
2024/04/17 15:52:47;;;;;;;0.90;0.70;;;17.50;29.60;;;;;;6782756;26;20311;-59
2024/04/17 15:55:53;;;;;;;0.83;0.57;;;16.70;30.40;;;;;;6800705;26;20267;-60
2024/04/17 15:59:00;;;;;;;0.80;0.67;;;16.50;30.80;;;;;;6801062;26;20472;-59
2024/04/17 16:02:11;;;;;;;1.47;0.60;;;16.60;30.90;;;;;;6801081;26;20235;-60
2024/04/17 16:05:25;;;;;;;1.63;0.53;;;16.80;30.80;;;;;;6779869;26;20248;-60
2024/04/17 16:08:29;;;;;;;1.23;0.50;;;16.80;30.70;;;;;;6772015;26;20693;-60
2024/04/17 16:11:39;;;;;;;1.00;0.60;;;16.90;30.00;;;;;;6780708;26;20243;-60
2024/04/17 16:14:43;;;;;;;3.30;0.70;;;16.80;30.00;;;;;;6772303;26;20614;-59
2024/04/17 16:18:05;;;;;;;0.60;0.60;;;16.60;30.50;;;;;;6763945;26;20526;-60
2024/04/17 16:21:13;;;;;;;0.60;0.53;;;16.60;31.10;;;;;;6778338;26;20523;-60
2024/04/17 16:24:21;;;;;;;1.70;0.67;;;16.50;31.40;;;;;;6801264;26;20273;-60
2024/04/17 16:27:25;;;;;;;1.27;0.90;;;16.40;31.30;;;;;;6789334;26;20514;-61
2024/04/17 16:30:45;;;;;;;0.80;0.70;;;16.20;32.00;;;;;;6800694;26;20517;-60
2024/04/17 16:34:24;;;;;;;3.63;0.67;;;16.10;32.60;;;;;;6756271;26;20462;-60
2024/04/17 16:37:49;;;;;;;1.10;0.63;;;16.00;32.70;;;;;;6751407;26;20826;-61
2024/04/17 16:41:03;;;;;;;0.90;0.60;;;15.70;33.00;;;;;;6755391;26;20963;-59